Time;durP1;ratioP1;P1;durP2;ratioP2;P2;SDS_P1;SDS_P2;PMS_P1;PMS_P2;Temp;Humidity;BMP_temperature;BMP_pressure;BME280_temperature;BME280_humidity;BME280_pressure;Samples;Min_cycle;Max_cycle;Signal;HPM_P1;HPM_P2
2023/06/04 00:02:25;;;;;;;10.23;4.65;;;;;;;-144.73;77.20;54173.72;5085286;28;20381;-71
2023/06/04 00:04:51;;;;;;;10.45;4.53;;;;;;;-144.73;79.70;54196.28;5085010;28;20040;-70
2023/06/04 00:07:17;;;;;;;11.10;4.60;;;;;;;-144.73;78.16;54194.25;5077976;28;20042;-70
2023/06/04 00:09:42;;;;;;;9.68;4.18;;;;;;;-144.73;77.81;54198.34;5080644;28;20111;-70
2023/06/04 00:12:08;;;;;;;8.43;4.10;;;;;;;-144.73;77.30;54161.41;5085183;28;20046;-70
2023/06/04 00:14:33;;;;;;;9.73;4.60;;;;;;;-144.73;79.99;54198.34;5086147;28;20032;-71
2023/06/04 00:16:58;;;;;;;7.53;4.18;;;;;;;-144.73;81.02;54218.88;5077662;28;20032;-71
2023/06/04 00:19:24;;;;;;;10.57;4.63;;;;;;;-144.73;81.04;54186.03;5084063;28;20062;-71
2023/06/04 00:21:49;;;;;;;7.25;4.30;;;;;;;-144.73;80.08;54247.59;5081927;28;20035;-70
2023/06/04 00:24:16;;;;;;;10.65;4.25;;;;;;;-144.73;79.82;54165.50;5084405;28;20126;-70
2023/06/04 00:26:41;;;;;;;8.25;3.80;;;;;;;-144.73;79.10;54145.00;5086191;28;20100;-70
2023/06/04 00:29:06;;;;;;;8.77;4.07;;;;;;;-144.73;78.76;54194.25;5081086;28;20032;-70
2023/06/04 00:31:32;;;;;;;11.20;5.15;;;;;;;-144.73;78.63;54171.66;5079525;28;20027;-70
2023/06/04 00:33:57;;;;;;;7.25;4.25;;;;;;;-144.73;79.02;54198.34;5089289;28;20532;-70
2023/06/04 00:36:22;;;;;;;9.35;5.10;;;;;;;-144.73;78.51;54165.50;5090678;28;20043;-70
2023/06/04 00:38:48;;;;;;;12.40;4.70;;;;;;;-144.73;78.58;54210.66;5095930;28;20021;-70
2023/06/04 00:41:13;;;;;;;7.43;3.72;;;;;;;-144.73;79.00;54206.56;5086462;28;20025;-70
2023/06/04 00:43:38;;;;;;;8.13;4.22;;;;;;;-144.73;77.86;54177.81;5090011;28;20042;-70
2023/06/04 00:46:06;;;;;;;10.75;4.47;;;;;;;-144.73;78.88;54194.25;5090775;28;20101;-70
2023/06/04 00:48:32;;;;;;;7.45;4.38;;;;;;;-144.73;79.73;54216.81;5087821;28;20032;-70
2023/06/04 00:50:57;;;;;;;8.05;3.75;;;;;;;-144.73;80.03;54153.19;5083669;28;20439;-71
2023/06/04 00:53:24;;;;;;;7.13;3.97;;;;;;;-144.73;79.66;54157.31;5080660;28;20119;-70
2023/06/04 00:55:50;;;;;;;10.25;4.80;;;;;;;-144.73;79.27;54169.63;5082042;28;20112;-70
2023/06/04 00:58:16;;;;;;;12.48;5.35;;;;;;;-144.73;79.01;54149.09;5081532;28;20103;-70
2023/06/04 01:00:44;;;;;;;10.75;5.20;;;;;;;-144.73;79.25;54218.88;5078535;28;20028;-70
2023/06/04 01:03:16;;;;;;;7.15;4.28;;;;;;;-144.73;81.40;54186.03;5079325;28;20036;-70
2023/06/04 01:05:53;;;;;;;14.32;6.13;;;;;;;-144.73;83.16;54210.66;5081028;28;20105;-70
2023/06/04 01:08:19;;;;;;;16.58;6.75;;;;;;;-144.73;83.19;54198.34;5082625;28;20040;-71
2023/06/04 01:10:52;;;;;;;18.65;8.25;;;;;;;-144.73;83.18;54151.16;5078310;28;20031;-71
2023/06/04 01:13:17;;;;;;;12.20;6.43;;;;;;;-144.73;82.18;54190.13;5081500;28;20120;-70
2023/06/04 01:15:42;;;;;;;11.30;5.00;;;;;;;-144.73;83.33;54186.03;5074039;28;20107;-70
2023/06/04 01:18:08;;;;;;;6.85;4.22;;;;;;;-144.73;83.91;54169.63;5083544;28;20099;-70
2023/06/04 01:20:46;;;;;;;7.35;4.15;;;;;;;-144.73;85.24;54202.44;5084898;28;20092;-69
2023/06/04 01:23:19;;;;;;;11.18;4.00;;;;;;;-144.73;86.15;54216.81;5077359;28;20032;-70
2023/06/04 01:25:49;;;;;;;7.07;3.90;;;;;;;-144.73;86.65;54190.13;5083792;28;20024;-69
2023/06/04 01:28:15;;;;;;;9.68;4.53;;;;;;;-144.73;94.19;54179.88;5082399;28;20038;-70
2023/06/04 01:30:45;;;;;;;9.07;3.97;;;;;;;-144.73;93.67;54169.63;5084614;28;20531;-69
2023/06/04 01:33:13;;;;;;;8.13;4.10;;;;;;;-144.73;92.76;54165.50;5090238;28;20032;-70
2023/06/04 01:35:39;;;;;;;10.48;4.35;;;;;;;-144.73;91.26;54165.50;5089502;28;20131;-70
2023/06/04 01:38:05;;;;;;;12.57;3.85;;;;;;;-144.73;90.75;54161.41;5088371;28;20036;-70
2023/06/04 01:40:31;;;;;;;7.43;3.97;;;;;;;-144.73;90.70;54145.00;5088060;28;20099;-70
2023/06/04 01:42:58;;;;;;;10.93;4.13;;;;;;;-144.73;92.35;54186.03;5082438;28;20124;-70
2023/06/04 01:45:23;;;;;;;8.63;4.95;;;;;;;-144.73;92.73;54210.66;5073242;28;20020;-70
2023/06/04 01:47:49;;;;;;;9.35;4.32;;;;;;;-144.73;91.10;54169.63;5076084;28;20085;-71
2023/06/04 01:50:15;;;;;;;13.10;5.13;;;;;;;-144.73;90.22;54202.44;5079996;28;20035;-70
2023/06/04 01:52:40;;;;;;;7.32;3.90;;;;;;;-144.73;90.29;54198.34;5077670;28;20509;-70
2023/06/04 01:55:08;;;;;;;10.95;4.55;;;;;;;-144.73;90.16;54173.72;5074575;28;20038;-70
2023/06/04 01:57:35;;;;;;;14.90;4.43;;;;;;;-144.73;90.72;54222.97;5078633;28;20411;-69
2023/06/04 02:00:01;;;;;;;10.00;4.68;;;;;;;-144.73;91.72;54186.03;5090282;28;20103;-70
2023/06/04 02:02:27;;;;;;;16.13;4.93;;;;;;;-144.73;91.12;54181.94;5078014;28;20101;-70
2023/06/04 02:04:52;;;;;;;7.13;4.78;;;;;;;-144.73;90.72;54239.41;5077693;28;20237;-70
2023/06/04 02:07:21;;;;;;;7.28;4.18;;;;;;;-144.73;90.17;54177.81;5080372;28;20055;-70
2023/06/04 02:09:47;;;;;;;9.23;5.03;;;;;;;-144.73;89.41;54181.94;5083367;28;20051;-70
2023/06/04 02:12:12;;;;;;;7.05;4.63;;;;;;;-144.73;88.37;54190.13;5073198;28;20137;-69
2023/06/04 02:14:38;;;;;;;14.13;4.97;;;;;;;-144.73;89.41;54181.94;5088012;28;20394;-69
2023/06/04 02:17:04;;;;;;;11.40;5.82;;;;;;;-144.73;91.83;54194.25;5090561;28;20040;-70
2023/06/04 02:19:33;;;;;;;16.85;5.78;;;;;;;-144.73;91.13;54153.19;5090419;28;20016;-69
2023/06/04 02:21:58;;;;;;;14.55;5.07;;;;;;;-144.73;90.73;54235.28;5083061;28;20033;-69
2023/06/04 02:24:24;;;;;;;12.02;5.57;;;;;;;-144.73;88.85;54163.47;5082064;28;20043;-69
2023/06/04 02:26:49;;;;;;;8.75;5.28;;;;;;;-144.73;89.29;54206.56;5074894;28;20154;-69
2023/06/04 02:29:14;;;;;;;10.57;5.75;;;;;;;-144.73;89.48;54186.03;5087260;28;20035;-70
2023/06/04 02:31:40;;;;;;;10.38;5.15;;;;;;;-144.73;90.50;54210.66;5076181;28;20024;-70
2023/06/04 02:34:05;;;;;;;13.95;5.47;;;;;;;-144.73;90.79;54165.50;5080836;28;20063;-69
2023/06/04 02:36:30;;;;;;;7.90;4.38;;;;;;;-144.73;90.64;54186.03;5082399;28;20023;-70
2023/06/04 02:38:56;;;;;;;11.75;5.00;;;;;;;-144.73;91.62;54177.81;5081498;28;20020;-70
2023/06/04 02:41:22;;;;;;;14.23;4.18;;;;;;;-144.73;91.15;54202.44;5072278;28;20036;-70
2023/06/04 02:43:48;;;;;;;10.85;4.35;;;;;;;-144.73;89.39;54157.31;5081120;28;20028;-70
2023/06/04 02:46:13;;;;;;;14.10;4.95;;;;;;;-144.73;88.98;54190.13;5077619;28;20110;-70
2023/06/04 02:48:38;;;;;;;11.38;4.80;;;;;;;-144.73;89.22;54231.19;5079025;28;20390;-69
2023/06/04 02:51:04;;;;;;;11.52;3.83;;;;;;;-144.73;88.91;54169.63;5087115;28;20030;-69
2023/06/04 02:53:30;;;;;;;8.07;3.60;;;;;;;-144.73;89.06;54173.72;5075127;28;20157;-69
2023/06/04 02:55:55;;;;;;;7.55;4.35;;;;;;;-144.73;89.33;54181.94;5087124;28;20036;-69
2023/06/04 02:58:21;;;;;;;12.10;4.20;;;;;;;-144.73;90.43;54153.19;5072844;28;20456;-70
2023/06/04 03:00:46;;;;;;;9.65;3.97;;;;;;;-144.73;88.05;54218.88;5082705;28;20032;-70
2023/06/04 03:03:12;;;;;;;8.90;4.32;;;;;;;-144.73;87.96;54204.50;5070410;28;20078;-70
2023/06/04 03:05:39;;;;;;;10.77;4.22;;;;;;;-144.73;88.91;54153.19;5078569;28;20052;-69
2023/06/04 03:08:05;;;;;;;8.23;4.32;;;;;;;-144.73;90.31;54171.66;5086531;28;20056;-70
2023/06/04 03:10:31;;;;;;;7.55;4.25;;;;;;;-144.73;89.86;54169.63;5083868;28;20055;-71
2023/06/04 03:12:56;;;;;;;6.63;4.15;;;;;;;-144.73;90.50;54183.97;5082530;28;20028;-70
2023/06/04 03:15:21;;;;;;;13.07;4.07;;;;;;;-144.73;92.00;54165.50;5082865;28;20020;-70
2023/06/04 03:17:47;;;;;;;9.70;3.50;;;;;;;-144.73;92.83;54186.03;5083802;28;20043;-70
2023/06/04 03:20:12;;;;;;;15.65;4.10;;;;;;;-144.73;94.15;54192.19;5080513;28;20028;-69
2023/06/04 03:22:38;;;;;;;15.40;4.28;;;;;;;-144.73;94.80;54247.59;5086914;28;20032;-69
2023/06/04 03:25:04;;;;;;;11.07;4.18;;;;;;;-144.73;96.61;54134.72;5084623;28;20084;-69
2023/06/04 03:27:32;;;;;;;7.55;3.13;;;;;;;-144.73;96.56;54206.56;5077251;28;20033;-69
2023/06/04 03:29:57;;;;;;;6.50;3.58;;;;;;;-144.73;96.78;54169.63;5071252;28;20103;-69
2023/06/04 03:32:22;;;;;;;8.32;3.97;;;;;;;-144.73;97.14;54190.13;5080778;28;20178;-69
2023/06/04 03:34:48;;;;;;;7.47;3.30;;;;;;;-144.73;97.21;54181.94;5088876;28;20051;-70
2023/06/04 03:37:13;;;;;;;7.78;3.70;;;;;;;-144.73;97.53;54210.66;5083770;28;20032;-69
2023/06/04 03:39:38;;;;;;;8.30;3.97;;;;;;;-144.73;97.57;54186.03;5079376;28;20132;-69
2023/06/04 03:42:05;;;;;;;10.85;3.83;;;;;;;-144.73;96.29;54190.13;5082628;28;20028;-69
2023/06/04 03:44:30;;;;;;;5.85;3.42;;;;;;;-144.73;95.43;54159.34;5087987;28;20039;-70
2023/06/04 03:46:55;;;;;;;11.63;3.55;;;;;;;-144.73;94.16;54194.25;5086937;28;20105;-69
2023/06/04 03:49:21;;;;;;;9.60;3.92;;;;;;;-144.73;93.95;54190.13;5079471;28;20052;-70
2023/06/04 03:51:47;;;;;;;7.43;3.28;;;;;;;-144.73;93.52;54153.19;5084216;28;20032;-70
2023/06/04 03:54:17;;;;;;;8.88;3.90;;;;;;;-144.73;92.92;54194.25;5079582;28;20402;-70
2023/06/04 03:56:44;;;;;;;5.55;3.33;;;;;;;-144.73;92.29;54177.81;5078405;28;20032;-69
2023/06/04 03:59:10;;;;;;;7.63;3.28;;;;;;;-144.73;91.71;54157.31;5078723;28;20028;-70
2023/06/04 04:01:35;;;;;;;6.15;3.25;;;;;;;-144.73;91.58;54169.63;5081589;28;20074;-69
2023/06/04 04:04:01;;;;;;;9.50;3.95;;;;;;;-144.73;91.77;54202.44;5079811;28;20057;-70
2023/06/04 04:06:26;;;;;;;8.00;3.08;;;;;;;-144.73;92.30;54157.31;5083537;28;20082;-70
2023/06/04 04:08:53;;;;;;;9.77;3.70;;;;;;;-144.73;92.11;54173.72;5083402;28;20020;-69
2023/06/04 04:11:18;;;;;;;14.43;3.08;;;;;;;-144.73;91.81;54183.97;5080051;28;20108;-69
2023/06/04 04:13:46;;;;;;;7.57;3.17;;;;;;;-144.73;91.86;54181.94;5080646;28;20039;-69
2023/06/04 04:16:12;;;;;;;8.07;3.08;;;;;;;-144.73;91.80;54118.31;5078278;28;20043;-69
2023/06/04 04:18:37;;;;;;;10.75;3.10;;;;;;;-144.73;91.61;54202.44;5073600;28;20037;-70
2023/06/04 04:21:04;;;;;;;9.95;3.33;;;;;;;-144.73;92.14;54210.66;5080872;28;20028;-69
2023/06/04 04:23:31;;;;;;;10.30;3.28;;;;;;;-144.73;91.73;54198.34;5089418;28;20032;-70
2023/06/04 04:25:58;;;;;;;11.15;3.67;;;;;;;-144.73;92.67;54218.88;5084619;28;20016;-70
2023/06/04 04:28:28;;;;;;;11.27;2.78;;;;;;;-144.73;92.38;54173.72;5078969;28;20569;-70
2023/06/04 04:30:54;;;;;;;10.20;3.40;;;;;;;-144.73;91.96;54157.31;5087124;28;20034;-70
2023/06/04 04:33:19;;;;;;;7.47;2.65;;;;;;;-144.73;92.78;54179.88;5087938;28;20029;-69
2023/06/04 04:35:45;;;;;;;6.90;2.85;;;;;;;-144.73;91.55;54173.72;5084912;28;20020;-70
2023/06/04 04:38:10;;;;;;;8.85;3.15;;;;;;;-144.73;92.09;54194.25;5087966;28;20045;-70
2023/06/04 04:40:36;;;;;;;5.55;3.03;;;;;;;-144.73;92.74;54186.03;5078188;28;20043;-70
2023/06/04 04:43:02;;;;;;;14.05;3.28;;;;;;;-144.73;91.50;54194.25;5080262;28;20028;-69
2023/06/04 04:45:27;;;;;;;14.85;3.40;;;;;;;-144.73;91.90;54153.19;5083545;28;20031;-70
2023/06/04 04:47:52;;;;;;;21.48;3.17;;;;;;;-144.73;92.67;54171.66;5084206;28;20031;-69
2023/06/04 04:50:18;;;;;;;11.82;3.13;;;;;;;-144.73;92.43;54198.34;5074386;28;20538;-69
2023/06/04 04:52:43;;;;;;;7.30;3.05;;;;;;;-144.73;91.70;54186.03;5078258;28;20495;-70
2023/06/04 04:55:09;;;;;;;7.45;2.92;;;;;;;-144.73;91.10;54186.03;5082024;28;20051;-69
2023/06/04 04:57:35;;;;;;;7.82;3.05;;;;;;;-144.73;91.94;54210.66;5076881;28;20180;-69
2023/06/04 05:00:04;;;;;;;18.77;2.90;;;;;;;-144.73;92.34;54206.56;5075051;28;20036;-70
2023/06/04 05:02:30;;;;;;;5.28;2.70;;;;;;;-144.73;93.80;54177.81;5077175;28;20388;-70
2023/06/04 05:04:55;;;;;;;11.95;3.00;;;;;;;-144.73;94.12;54225.03;5086543;28;20027;-70
2023/06/04 05:07:23;;;;;;;11.18;3.03;;;;;;;-144.73;95.17;54202.44;5083504;28;20422;-69
2023/06/04 05:09:48;;;;;;;9.90;3.85;;;;;;;-144.73;95.29;54210.66;5082341;28;20032;-70
2023/06/04 05:12:14;;;;;;;9.93;3.33;;;;;;;-144.73;96.20;54188.09;5081663;28;20157;-69
2023/06/04 05:14:39;;;;;;;10.38;3.30;;;;;;;-144.73;98.56;54173.72;5085188;28;20104;-69
2023/06/04 05:17:06;;;;;;;11.82;3.72;;;;;;;-144.73;98.85;54190.13;5087304;28;20039;-69
2023/06/04 05:19:32;;;;;;;13.82;3.50;;;;;;;-144.73;98.69;54198.34;5088354;28;20077;-69
2023/06/04 05:22:00;;;;;;;23.85;4.00;;;;;;;-144.73;99.43;54190.13;5081934;28;20055;-70
2023/06/04 05:24:26;;;;;;;14.75;4.00;;;;;;;-144.73;99.30;54208.63;5086329;28;20024;-70
2023/06/04 05:26:51;;;;;;;15.68;3.95;;;;;;;-144.73;98.97;54190.13;5079226;28;20036;-70
2023/06/04 05:29:16;;;;;;;11.60;3.70;;;;;;;-144.73;99.22;54206.56;5073504;28;20032;-70
2023/06/04 05:31:42;;;;;;;13.77;3.40;;;;;;;-144.73;98.89;54190.13;5079659;28;20036;-70
2023/06/04 05:34:08;;;;;;;15.90;3.63;;;;;;;-144.73;97.47;54231.19;5088770;28;20093;-70
2023/06/04 05:36:34;;;;;;;13.90;4.00;;;;;;;-144.73;96.93;54196.28;5082040;28;20093;-70
2023/06/04 05:38:59;;;;;;;14.20;3.42;;;;;;;-144.73;95.14;54186.03;5081440;28;20032;-71
2023/06/04 05:41:26;;;;;;;11.18;3.33;;;;;;;-144.73;94.27;54186.03;5081902;28;20027;-70
2023/06/04 05:43:51;;;;;;;8.93;2.97;;;;;;;-144.73;94.03;54181.94;5083593;28;20044;-70
2023/06/04 05:46:17;;;;;;;14.38;4.35;;;;;;;-144.73;94.24;54171.66;5087890;28;20056;-70
2023/06/04 05:48:42;;;;;;;12.70;2.97;;;;;;;-144.73;93.87;54206.56;5073432;28;20033;-72
2023/06/04 05:51:08;;;;;;;15.25;3.20;;;;;;;-144.73;93.91;54190.13;5080015;28;20028;-71
2023/06/04 05:53:33;;;;;;;9.38;3.20;;;;;;;-144.73;92.76;54194.25;5089316;28;20035;-71
2023/06/04 05:55:59;;;;;;;15.00;3.38;;;;;;;-144.73;92.81;54198.34;5082651;28;20056;-70
2023/06/04 05:58:24;;;;;;;8.30;2.80;;;;;;;-144.73;91.44;54153.19;5072092;28;20051;-70
2023/06/04 06:00:50;;;;;;;10.80;3.30;;;;;;;-144.73;91.35;54206.56;5072839;28;20050;-69
2023/06/04 06:03:16;;;;;;;16.17;3.53;;;;;;;-144.73;91.51;54227.09;5085107;28;20116;-70
2023/06/04 06:05:42;;;;;;;10.60;3.08;;;;;;;-144.73;91.65;54210.66;5086407;28;20099;-71
2023/06/04 06:08:08;;;;;;;14.50;2.90;;;;;;;-144.73;91.97;54186.03;5077740;28;20159;-71
2023/06/04 06:10:33;;;;;;;16.52;3.20;;;;;;;-144.73;90.24;54214.78;5086746;28;20012;-72
2023/06/04 06:13:00;;;;;;;9.90;3.00;;;;;;;-144.73;89.67;54218.88;5087301;28;20055;-71
2023/06/04 06:15:26;;;;;;;11.60;3.28;;;;;;;-144.73;88.91;54202.44;5087893;28;20024;-70
2023/06/04 06:17:51;;;;;;;9.95;2.80;;;;;;;-144.73;87.21;54194.25;5085390;28;20472;-71
2023/06/04 06:20:18;;;;;;;14.13;3.25;;;;;;;-144.73;86.13;54202.44;5071827;28;20027;-70
2023/06/04 06:22:44;;;;;;;10.70;2.90;;;;;;;-144.73;86.05;54222.97;5073303;28;20054;-71
2023/06/04 06:25:12;;;;;;;13.45;4.00;;;;;;;-144.73;83.28;54165.50;5081707;28;20107;-71
2023/06/04 06:27:38;;;;;;;9.00;3.00;;;;;;;-144.73;82.63;54190.13;5082965;28;20028;-71
2023/06/04 06:30:06;;;;;;;15.13;3.22;;;;;;;-144.73;82.06;54186.03;5087162;28;20146;-71
2023/06/04 06:32:31;;;;;;;9.75;2.88;;;;;;;-144.73;80.74;54169.63;5067726;28;20020;-71
2023/06/04 06:34:57;;;;;;;11.27;4.60;;;;;;;-144.73;80.66;54151.16;5080041;28;20024;-71
2023/06/04 06:37:22;;;;;;;15.50;3.50;;;;;;;-144.73;80.44;54169.63;5086179;28;20032;-71
2023/06/04 06:39:47;;;;;;;11.77;3.35;;;;;;;-144.73;79.17;54206.56;5081698;28;20077;-71
2023/06/04 06:42:13;;;;;;;12.82;3.05;;;;;;;-144.73;78.77;54173.72;5081707;28;20028;-71
2023/06/04 06:44:38;;;;;;;7.75;2.92;;;;;;;-144.73;77.99;54198.34;5087446;28;20073;-71
2023/06/04 06:47:03;;;;;;;8.07;2.72;;;;;;;-144.73;78.00;54208.63;5088218;28;20097;-71
2023/06/04 06:49:29;;;;;;;15.15;5.53;;;;;;;-144.73;75.49;54145.00;5090019;28;20027;-71
2023/06/04 06:51:54;;;;;;;13.32;4.20;;;;;;;-144.73;73.56;54206.56;5088710;28;20032;-71
2023/06/04 06:54:21;;;;;;;13.73;5.75;;;;;;;-144.73;74.22;54173.72;5088058;28;20020;-70
2023/06/04 06:56:49;;;;;;;20.08;3.78;;;;;;;-144.73;73.23;54190.13;5089137;28;20051;-70
2023/06/04 06:59:14;;;;;;;12.35;2.58;;;;;;;-144.73;72.72;54206.56;5103480;28;20031;-70
2023/06/04 07:01:40;;;;;;;8.32;2.53;;;;;;;-144.73;72.58;54161.41;5087925;28;20135;-71
2023/06/04 07:04:06;;;;;;;13.05;3.00;;;;;;;-144.73;70.75;54177.81;5081518;28;20024;-71
2023/06/04 07:06:32;;;;;;;8.20;2.65;;;;;;;-144.73;70.76;54188.09;5080053;28;20077;-71
2023/06/04 07:08:58;;;;;;;11.52;2.50;;;;;;;-144.73;69.98;54145.00;5081965;28;20047;-71
2023/06/04 07:11:25;;;;;;;5.47;2.28;;;;;;;-144.73;69.33;54186.03;5081223;28;20028;-70
2023/06/04 07:13:51;;;;;;;9.48;2.50;;;;;;;-144.73;67.06;54181.94;5081801;28;20028;-72
2023/06/04 07:16:17;;;;;;;9.82;2.58;;;;;;;-144.73;65.99;54206.56;5081760;28;20118;-72
2023/06/04 07:18:45;;;;;;;10.52;2.45;;;;;;;-144.73;64.14;54181.94;5085511;28;20036;-72
2023/06/04 07:21:10;;;;;;;9.20;2.60;;;;;;;-144.73;63.63;54169.63;5083887;28;20085;-71
2023/06/04 07:23:36;;;;;;;6.53;2.28;;;;;;;-144.73;64.30;54175.78;5086381;28;20036;-72
2023/06/04 07:26:01;;;;;;;8.20;2.38;;;;;;;-144.73;63.27;54157.31;5081791;28;20032;-70
2023/06/04 07:28:27;;;;;;;10.52;2.60;;;;;;;-144.73;62.76;54149.09;5090510;28;20431;-70
2023/06/04 07:30:52;;;;;;;7.28;2.08;;;;;;;-144.73;61.68;54132.69;5080099;28;20064;-69
2023/06/04 07:33:17;;;;;;;9.65;2.33;;;;;;;-144.73;59.66;54157.31;5093194;28;20052;-70
2023/06/04 07:35:42;;;;;;;7.97;2.42;;;;;;;-144.73;59.31;54169.63;5102703;28;20020;-71
2023/06/04 07:38:08;;;;;;;6.63;2.20;;;;;;;-144.73;59.01;54136.78;5092563;28;20036;-70
2023/06/04 07:40:33;;;;;;;6.13;2.53;;;;;;;-144.73;57.03;54161.41;5102327;28;20012;-71
2023/06/04 07:42:58;;;;;;;6.88;1.83;;;;;;;-144.73;58.55;54149.09;5090257;28;20032;-70
2023/06/04 07:45:24;;;;;;;6.80;2.45;;;;;;;-144.73;57.34;54171.66;5090500;28;20028;-72
2023/06/04 07:47:50;;;;;;;8.07;2.42;;;;;;;-144.73;57.44;54116.25;5097973;28;20027;-72
2023/06/04 07:50:15;;;;;;;7.03;2.08;;;;;;;-144.73;56.59;54177.81;5101834;28;20020;-71
2023/06/04 07:52:41;;;;;;;10.65;2.63;;;;;;;-144.73;56.31;54157.31;5098086;28;20107;-72
2023/06/04 07:55:08;;;;;;;9.98;3.15;;;;;;;-144.73;53.77;54128.56;5103765;28;20084;-72
2023/06/04 07:57:34;;;;;;;8.18;2.08;;;;;;;-144.73;52.02;54120.34;5094379;28;20117;-72
2023/06/04 08:00:03;;;;;;;5.20;2.22;;;;;;;-144.73;49.93;54124.47;5101557;28;20604;-73
2023/06/04 08:02:31;;;;;;;5.50;2.08;;;;;;;-144.73;49.08;54099.84;5100042;28;20028;-70
2023/06/04 08:04:56;;;;;;;4.90;1.90;;;;;;;-144.73;48.36;54103.94;5105924;27;20038;-72
2023/06/04 08:07:22;;;;;;;5.43;1.73;;;;;;;-144.73;49.13;54110.09;5098527;28;20055;-71
2023/06/04 08:09:47;;;;;;;11.60;2.92;;;;;;;-144.73;49.59;54145.00;5102775;28;20043;-74
2023/06/04 08:12:13;;;;;;;11.00;2.83;;;;;;;-144.73;49.31;54099.84;5092220;28;20522;-72
2023/06/04 08:14:39;;;;;;;7.30;2.28;;;;;;;-144.73;47.76;54124.47;5106126;28;20045;-73
2023/06/04 08:17:04;;;;;;;7.15;2.30;;;;;;;-144.73;47.54;54136.78;5095664;27;20057;-72
2023/06/04 08:19:30;;;;;;;4.78;2.17;;;;;;;-144.73;47.68;54145.00;5101100;28;20099;-71
2023/06/04 08:21:55;;;;;;;6.32;2.20;;;;;;;-144.73;44.27;54126.53;5101510;28;20494;-72
2023/06/04 08:24:21;;;;;;;6.20;2.22;;;;;;;-144.73;43.48;54132.69;5102518;28;20020;-73
2023/06/04 08:26:47;;;;;;;10.02;2.10;;;;;;;-144.73;44.13;54128.56;5100425;27;20073;-72
2023/06/04 08:29:12;;;;;;;13.82;2.60;;;;;;;-144.73;45.22;54116.25;5100399;27;20030;-72
2023/06/04 08:31:39;;;;;;;8.90;2.70;;;;;;;-144.73;45.10;54116.25;5100806;28;20048;-72
2023/06/04 08:34:05;;;;;;;5.35;1.90;;;;;;;-144.73;43.63;54120.34;5098889;28;20050;-71
2023/06/04 08:36:32;;;;;;;6.38;1.83;;;;;;;-144.73;44.03;54134.72;5097844;28;20470;-72
2023/06/04 08:38:58;;;;;;;13.73;2.42;;;;;;;-144.73;43.20;54095.72;5101560;27;20120;-73
2023/06/04 08:41:38;;;;;;;8.32;2.38;;;;;;;-144.73;42.71;54124.47;5096847;28;20122;-72
2023/06/04 08:44:09;;;;;;;9.73;3.22;;;;;;;-144.73;42.68;54095.72;5097239;28;20024;-72
2023/06/04 08:46:41;;;;;;;6.03;3.00;;;;;;;-144.73;42.12;54120.34;5094067;28;20020;-72
2023/06/04 08:49:08;;;;;;;11.10;2.28;;;;;;;-144.73;44.54;54120.34;5093596;28;20471;-72
2023/06/04 08:51:37;;;;;;;7.53;2.20;;;;;;;-144.73;44.06;54116.25;5101311;27;20032;-72
2023/06/04 08:54:05;;;;;;;8.32;2.00;;;;;;;-144.73;43.18;54116.25;5095382;28;20012;-73
2023/06/04 08:56:32;;;;;;;11.52;2.53;;;;;;;-144.73;42.79;54101.88;5080594;28;20028;-71
2023/06/04 08:59:04;;;;;;;9.63;2.13;;;;;;;-144.73;42.40;54120.34;5093689;28;20028;-71
2023/06/04 09:01:32;;;;;;;6.07;2.10;;;;;;;-144.73;41.59;54134.72;5097113;28;20019;-72
2023/06/04 09:03:59;;;;;;;8.35;2.50;;;;;;;-144.73;41.66;54110.09;5099044;28;20054;-72
2023/06/04 09:06:26;;;;;;;6.05;2.25;;;;;;;-144.73;41.53;54122.41;5098676;28;20016;-72
2023/06/04 09:08:52;;;;;;;3.40;1.85;;;;;;;-144.73;41.21;54128.56;5095207;28;20039;-72
2023/06/04 09:11:20;;;;;;;8.15;2.38;;;;;;;-144.73;39.62;54112.16;5088416;28;20020;-70
2023/06/04 09:13:46;;;;;;;6.22;1.92;;;;;;;-144.73;40.63;54120.34;5086632;28;20016;-73
2023/06/04 09:16:12;;;;;;;9.60;2.22;;;;;;;-144.73;40.29;54118.31;5097345;28;20545;-72
2023/06/04 09:18:37;;;;;;;12.15;2.40;;;;;;;-144.73;40.07;54083.41;5093269;28;20166;-72
2023/06/04 09:21:07;;;;;;;6.53;2.10;;;;;;;-144.73;39.04;54132.69;5093815;28;20051;-72
2023/06/04 09:23:48;;;;;;;7.70;1.85;;;;;;;-144.73;38.64;54071.09;5095520;28;20032;-73
2023/06/04 09:26:14;;;;;;;12.82;2.35;;;;;;;-144.73;38.67;54091.63;5098070;28;20078;-73
2023/06/04 09:28:44;;;;;;;7.13;1.90;;;;;;;-144.73;37.75;54067.00;5096352;28;20075;-73
2023/06/04 09:31:14;;;;;;;15.25;3.28;;;;;;;-144.73;37.38;54108.03;5094380;27;20458;-72
2023/06/04 09:33:48;;;;;;;12.20;3.53;;;;;;;-144.73;37.10;54103.94;5098262;27;20036;-73
2023/06/04 09:36:14;;;;;;;10.50;2.25;;;;;;;-144.73;35.68;54091.63;5097804;27;20031;-73
2023/06/04 09:38:40;;;;;;;4.47;1.73;;;;;;;-144.73;36.57;54128.56;5095366;28;20036;-72
2023/06/04 09:41:13;;;;;;;4.32;1.50;;;;;;;-144.73;35.30;54087.53;5099283;28;20165;-72
2023/06/04 09:43:43;;;;;;;3.20;1.67;;;;;;;-144.73;35.88;54087.53;5089664;28;20036;-71
2023/06/04 09:46:10;;;;;;;9.98;1.80;;;;;;;-144.73;34.80;54103.94;5098640;28;20043;-73
2023/06/04 09:48:40;;;;;;;11.07;2.20;;;;;;;-144.73;34.75;54071.09;5073387;28;20044;-75
2023/06/04 09:51:28;;;;;;;15.68;2.15;;;;;;;-144.73;33.80;54116.25;5121654;22;20048;-72
2023/06/04 09:54:02;;;;;;;6.13;1.90;;;;;;;-144.73;34.17;54101.88;5039499;28;20494;-74
2023/06/04 09:56:40;;;;;;;4.30;2.47;;;;;;;-144.73;33.80;54095.72;5043686;28;20049;-74
2023/06/04 09:59:07;;;;;;;5.40;1.55;;;;;;;-144.73;35.45;54128.56;5051133;28;20024;-72
2023/06/04 10:01:36;;;;;;;5.85;1.63;;;;;;;-144.73;34.83;54120.34;5054966;28;20020;-74
2023/06/04 10:04:11;;;;;;;6.20;1.88;;;;;;;-144.73;33.87;54095.72;5060710;28;20063;-73
2023/06/04 10:06:39;;;;;;;7.63;1.67;;;;;;;-144.73;33.91;54071.09;5065590;28;20055;-74
2023/06/04 10:09:10;;;;;;;9.35;2.30;;;;;;;-144.73;34.61;54103.94;5064917;28;20044;-74
2023/06/04 10:16:46;;;;;;;5.90;1.83;;;;;;;-144.73;33.88;54120.34;5041856;28;20053;-74
2023/06/04 10:19:12;;;;;;;4.88;1.50;;;;;;;-144.73;34.08;54083.41;5031051;28;20025;-72
2023/06/04 10:21:38;;;;;;;3.60;1.42;;;;;;;-144.73;35.60;54122.41;5025567;28;20032;-72
2023/06/04 10:24:04;;;;;;;4.32;2.05;;;;;;;-144.73;36.37;54108.03;5035872;28;20025;-73
2023/06/04 10:26:30;;;;;;;5.03;2.30;;;;;;;-144.73;34.47;54103.94;5030685;28;20135;-72
2023/06/04 10:28:57;;;;;;;4.05;1.70;;;;;;;-144.73;33.33;54120.34;5022222;28;20098;-73
2023/06/04 10:31:22;;;;;;;6.80;1.50;;;;;;;-144.73;32.50;54095.72;5022500;28;21155;-72
2023/06/04 10:33:48;;;;;;;7.43;1.90;;;;;;;-144.73;32.82;54091.63;5019415;28;20036;-75
2023/06/04 10:36:21;;;;;;;4.95;2.22;;;;;;;-144.73;32.99;54071.09;5022454;28;20029;-74
2023/06/04 10:38:56;;;;;;;7.45;4.38;;;;;;;-144.73;33.54;54081.38;5016616;28;20075;-73
2023/06/04 10:41:23;;;;;;;5.18;1.73;;;;;;;-144.73;33.10;54091.63;5018091;28;20059;-73
2023/06/04 10:43:50;;;;;;;7.90;1.70;;;;;;;-144.73;32.57;54093.69;5036015;28;20021;-72
2023/06/04 10:46:17;;;;;;;5.03;1.65;;;;;;;-144.73;32.46;54103.94;5024848;28;20024;-73
2023/06/04 10:48:50;;;;;;;7.07;1.70;;;;;;;-144.73;32.47;54116.25;5017333;28;20033;-74
2023/06/04 10:51:39;;;;;;;7.45;2.10;;;;;;;-144.73;32.58;54089.56;5024309;28;20021;-72
2023/06/04 10:54:04;;;;;;;9.35;2.10;;;;;;;-144.73;32.79;54091.63;5036910;28;20051;-72
2023/06/04 10:56:38;;;;;;;10.63;1.92;;;;;;;-144.73;32.55;54097.78;5016255;28;20034;-73
2023/06/04 10:59:16;;;;;;;5.57;1.95;;;;;;;-144.73;32.38;54099.84;5019814;28;20053;-73
2023/06/04 11:01:42;;;;;;;2.28;1.38;;;;;;;-144.73;32.70;54079.31;5032024;28;20640;-73
2023/06/04 11:04:21;;;;;;;7.70;1.95;;;;;;;-144.73;32.84;54050.59;5030183;28;20045;-74
2023/06/04 11:06:47;;;;;;;7.35;1.70;;;;;;;-144.73;32.56;54095.72;5019283;28;20029;-72
2023/06/04 11:09:16;;;;;;;4.93;1.80;;;;;;;-144.73;32.56;54054.69;5028771;28;20037;-72
2023/06/04 11:11:41;;;;;;;3.60;1.60;;;;;;;-144.73;32.12;54091.63;5034258;28;20028;-73
2023/06/04 11:14:12;;;;;;;8.98;2.00;;;;;;;-144.73;32.18;54058.78;5019344;28;20089;-72
2023/06/04 11:16:38;;;;;;;7.65;1.80;;;;;;;-144.73;31.42;54058.78;5036367;28;20148;-73
2023/06/04 11:19:04;;;;;;;6.15;1.90;;;;;;;-144.73;30.93;54071.09;5049134;28;20088;-72